Center Ossipee, New Hampshire
Current Conditions -  °F | °C
As of 11:35 AM on Tuesday 21 Oct 2014 (Local Time) from KLCI Reporting Station
Overcast Overcast  
Wind Chill: 44°   Ceiling: 6500
Heat Index: 48°   Visibility: 10mi
Dew Point: 41°   Wind: 9mph
Humidity: 76%   Direction: 70°ENE
Pressure: 30"   Gusts: NA
Location:  43.75°N, 71.16°W
Report Text: KLCI 211535Z AUTO 07008KT 10SM FEW036 FEW049 OVC065 09/05 A3000 RMK AO1
Loading
Personal Weather Stations






























Interactive Weather Map
Tropical Storm Tracking
New forecast layout! Learn more

10-Day Weather Forecast

Advertisements
Track Severe Weather on mobile